Погода Стыкувна неделю

Подкарпатское воеводство, Польша

15 - 21 июля
  • 15июля
    Сегодня
    +19°
    +29°
    Практически безоблачно
    ВремяПогодаТемператураВлажностьДавлениеВетер, м/сВероятность осадков
    02:00Ясно и безоблачно+19°C98 %743 мм2.0 м/с2 %
    05:00Небольшая облачность+18°C99 %743 мм1.4 м/с2 %
    08:00Пасмурно, сплошная облачность+22°C90 %744 мм2.5 м/с9 %
    11:00Пасмурно, сплошная облачность+25°C78 %744 мм2.3 м/с13 %
    14:00Практически безоблачно+28°C62 %744 мм2.4 м/с11 %
    17:00Практически безоблачно+28°C58 %743 мм2.7 м/с3 %
    20:00Ясно и безоблачно+26°C80 %743 мм2.5 м/с2 %
    23:00Ясно и безоблачно+22°C90 %743 мм1.9 м/с2 %
  • 16июля
    Вторник
    +19°
    +32°
    Небольшая облачность
    ВремяПогодаТемператураВлажностьДавлениеВетер, м/сВероятность осадков
    02:00Ясно и безоблачно+20°C91 %743 мм2.3 м/с2 %
    05:00Ясно и безоблачно+20°C96 %743 мм2.0 м/с2 %
    08:00Ясно и безоблачно+25°C83 %743 мм3.2 м/с2 %
    11:00Ясно и безоблачно+30°C66 %742 мм3.2 м/с2 %
    14:00Небольшая облачность+31°C51 %742 мм3.2 м/с7 %
    17:00Облачно с прояснениями+29°C59 %742 мм4.1 м/с33 %
    20:00Небольшая облачность+27°C77 %742 мм2.3 м/с10 %
    23:00Облачно с прояснениями+23°C84 %742 мм2.5 м/с24 %
  • 17июля
    Среда
    +18°
    +29°
    Ясно и безоблачно
    ВремяПогодаТемператураВлажностьДавлениеВетер, м/сВероятность осадков
    02:00Ясно и безоблачно+22°C95 %743 мм2.5 м/с18 %
    05:00Практически безоблачно+20°C96 %744 мм2.1 м/с8 %
    08:00Практически безоблачно+23°C81 %746 мм3.4 м/с9 %
    11:00Ясно и безоблачно+27°C55 %746 мм3.6 м/с16 %
    14:00Ясно и безоблачно+28°C47 %746 мм3.8 м/с15 %
    17:00Небольшая облачность+28°C46 %746 мм3.0 м/с7 %
    20:00Небольшая облачность+25°C70 %746 мм2.0 м/с6 %
    23:00Практически безоблачно+22°C77 %747 мм1.5 м/с2 %
  • 18июля
    Четверг
    +15°
    +28°
    Ясно и безоблачно
    ВремяПогодаТемператураВлажностьДавлениеВетер, м/сВероятность осадков
    02:00Практически безоблачно+21°C65 %747 мм2.8 м/с2 %
    05:00Практически безоблачно+19°C70 %748 мм2.4 м/с4 %
    08:00Практически безоблачно+22°C64 %748 мм3.0 м/с14 %
    11:00Облачно с прояснениями+26°C48 %749 мм3.6 м/с8 %
    14:00Ясно и безоблачно+27°C43 %748 мм4.3 м/с9 %
    17:00Практически безоблачно+27°C42 %747 мм4.0 м/с11 %
    20:00Практически безоблачно+25°C57 %747 мм2.1 м/с8 %
    23:00Ясно и безоблачно+20°C71 %748 мм1.8 м/с3 %
  • 19июля
    Пятница
    +15°
    +28°
    Облачно с прояснениями
    ВремяПогодаТемператураВлажностьДавлениеВетер, м/сВероятность осадков
    02:00Практически безоблачно+18°C70 %747 мм1.9 м/с2 %
    05:00Ясно и безоблачно+16°C83 %747 мм1.6 м/с2 %
    08:00Небольшая облачность+21°C68 %748 мм1.9 м/с2 %
    11:00Облачно с прояснениями+26°C45 %747 мм2.9 м/с4 %
    14:00Облачно с прояснениями+27°C37 %746 мм3.3 м/с4 %
    17:00Практически безоблачно+26°C40 %745 мм3.0 м/с2 %
    20:00Ясно и безоблачно+24°C54 %745 мм1.7 м/с2 %
    23:00Облачно с прояснениями+21°C75 %745 мм1.7 м/с2 %
Мы используем cookies
Соглашаюсь